sensor_id;sensor_type;location;lat;lon;timestamp;P1;durP1;ratioP1;P2;durP2;ratioP2
7917;SDS011;4004;42.624;23.386;2023-07-13T00:01:34;4.80;;;3.73;;
7917;SDS011;4004;42.624;23.386;2023-07-13T00:04:04;4.47;;;3.40;;
7917;SDS011;4004;42.624;23.386;2023-07-13T00:06:31;4.40;;;3.80;;
7917;SDS011;4004;42.624;23.386;2023-07-13T00:08:57;5.13;;;3.60;;
7917;SDS011;4004;42.624;23.386;2023-07-13T00:11:24;6.87;;;3.73;;
7917;SDS011;4004;42.624;23.386;2023-07-13T00:13:51;5.53;;;3.73;;
7917;SDS011;4004;42.624;23.386;2023-07-13T00:16:19;6.47;;;3.73;;
7917;SDS011;4004;42.624;23.386;2023-07-13T00:18:46;6.83;;;3.93;;
7917;SDS011;4004;42.624;23.386;2023-07-13T00:21:13;5.47;;;3.90;;
7917;SDS011;4004;42.624;23.386;2023-07-13T00:23:41;5.93;;;3.87;;
7917;SDS011;4004;42.624;23.386;2023-07-13T00:26:09;5.03;;;3.97;;
7917;SDS011;4004;42.624;23.386;2023-07-13T00:28:37;5.87;;;4.20;;
7917;SDS011;4004;42.624;23.386;2023-07-13T00:31:04;4.63;;;4.10;;
7917;SDS011;4004;42.624;23.386;2023-07-13T00:33:33;8.93;;;4.63;;
7917;SDS011;4004;42.624;23.386;2023-07-13T00:35:59;5.70;;;4.10;;
7917;SDS011;4004;42.624;23.386;2023-07-13T00:38:26;7.63;;;4.30;;
7917;SDS011;4004;42.624;23.386;2023-07-13T00:40:53;7.07;;;4.50;;
7917;SDS011;4004;42.624;23.386;2023-07-13T00:43:21;6.93;;;4.40;;
7917;SDS011;4004;42.624;23.386;2023-07-13T00:46:12;6.53;;;4.60;;
7917;SDS011;4004;42.624;23.386;2023-07-13T00:48:44;5.60;;;4.30;;
7917;SDS011;4004;42.624;23.386;2023-07-13T00:51:13;4.50;;;3.90;;
7917;SDS011;4004;42.624;23.386;2023-07-13T00:53:45;7.43;;;4.60;;
7917;SDS011;4004;42.624;23.386;2023-07-13T00:56:11;5.43;;;3.90;;
7917;SDS011;4004;42.624;23.386;2023-07-13T00:58:39;5.20;;;4.00;;
7917;SDS011;4004;42.624;23.386;2023-07-13T01:01:06;5.60;;;3.93;;
7917;SDS011;4004;42.624;23.386;2023-07-13T01:03:32;6.47;;;4.30;;
7917;SDS011;4004;42.624;23.386;2023-07-13T01:06:02;7.23;;;4.33;;
7917;SDS011;4004;42.624;23.386;2023-07-13T01:08:29;4.90;;;3.57;;
7917;SDS011;4004;42.624;23.386;2023-07-13T01:10:56;5.07;;;4.30;;
7917;SDS011;4004;42.624;23.386;2023-07-13T01:13:24;5.00;;;3.90;;
7917;SDS011;4004;42.624;23.386;2023-07-13T01:15:51;7.37;;;4.70;;
7917;SDS011;4004;42.624;23.386;2023-07-13T01:18:20;7.70;;;4.37;;
7917;SDS011;4004;42.624;23.386;2023-07-13T01:20:54;4.37;;;3.93;;
7917;SDS011;4004;42.624;23.386;2023-07-13T01:23:21;5.87;;;4.40;;
7917;SDS011;4004;42.624;23.386;2023-07-13T01:25:49;5.20;;;4.33;;
7917;SDS011;4004;42.624;23.386;2023-07-13T01:28:16;7.07;;;4.30;;
7917;SDS011;4004;42.624;23.386;2023-07-13T01:30:44;6.03;;;4.40;;
7917;SDS011;4004;42.624;23.386;2023-07-13T01:33:12;7.70;;;4.37;;
7917;SDS011;4004;42.624;23.386;2023-07-13T01:35:39;5.53;;;4.53;;
7917;SDS011;4004;42.624;23.386;2023-07-13T01:38:08;6.40;;;4.60;;
7917;SDS011;4004;42.624;23.386;2023-07-13T01:40:36;5.73;;;4.40;;
7917;SDS011;4004;42.624;23.386;2023-07-13T01:43:04;5.47;;;4.27;;
7917;SDS011;4004;42.624;23.386;2023-07-13T01:45:31;7.47;;;4.80;;
7917;SDS011;4004;42.624;23.386;2023-07-13T01:47:58;8.37;;;4.77;;
7917;SDS011;4004;42.624;23.386;2023-07-13T01:50:25;6.13;;;4.40;;
7917;SDS011;4004;42.624;23.386;2023-07-13T01:52:52;5.97;;;4.40;;
7917;SDS011;4004;42.624;23.386;2023-07-13T01:55:20;6.23;;;4.37;;
7917;SDS011;4004;42.624;23.386;2023-07-13T01:57:48;4.97;;;4.47;;
7917;SDS011;4004;42.624;23.386;2023-07-13T02:00:15;5.33;;;4.83;;
7917;SDS011;4004;42.624;23.386;2023-07-13T02:02:43;5.83;;;4.47;;
7917;SDS011;4004;42.624;23.386;2023-07-13T02:05:10;7.23;;;4.60;;
7917;SDS011;4004;42.624;23.386;2023-07-13T02:07:37;5.90;;;5.17;;
7917;SDS011;4004;42.624;23.386;2023-07-13T02:10:04;5.53;;;5.03;;
7917;SDS011;4004;42.624;23.386;2023-07-13T02:12:33;5.87;;;4.53;;
7917;SDS011;4004;42.624;23.386;2023-07-13T02:15:00;6.33;;;5.20;;
7917;SDS011;4004;42.624;23.386;2023-07-13T02:17:27;7.80;;;4.43;;
7917;SDS011;4004;42.624;23.386;2023-07-13T02:19:54;10.03;;;4.93;;
7917;SDS011;4004;42.624;23.386;2023-07-13T02:22:21;5.53;;;4.80;;
7917;SDS011;4004;42.624;23.386;2023-07-13T02:24:48;6.53;;;5.07;;
7917;SDS011;4004;42.624;23.386;2023-07-13T02:27:14;9.57;;;4.73;;
7917;SDS011;4004;42.624;23.386;2023-07-13T02:29:42;5.30;;;4.60;;
7917;SDS011;4004;42.624;23.386;2023-07-13T02:32:09;5.07;;;4.40;;
7917;SDS011;4004;42.624;23.386;2023-07-13T02:34:36;6.70;;;5.20;;
7917;SDS011;4004;42.624;23.386;2023-07-13T02:37:03;5.10;;;4.63;;
7917;SDS011;4004;42.624;23.386;2023-07-13T02:39:30;7.50;;;4.20;;
7917;SDS011;4004;42.624;23.386;2023-07-13T02:41:58;8.67;;;5.20;;
7917;SDS011;4004;42.624;23.386;2023-07-13T02:44:25;6.13;;;4.50;;
7917;SDS011;4004;42.624;23.386;2023-07-13T02:46:53;5.70;;;5.17;;
7917;SDS011;4004;42.624;23.386;2023-07-13T02:49:20;5.60;;;5.00;;
7917;SDS011;4004;42.624;23.386;2023-07-13T02:51:47;5.10;;;4.53;;
7917;SDS011;4004;42.624;23.386;2023-07-13T02:54:14;6.93;;;4.90;;
7917;SDS011;4004;42.624;23.386;2023-07-13T02:56:40;6.43;;;4.47;;
7917;SDS011;4004;42.624;23.386;2023-07-13T02:59:08;7.53;;;4.53;;
7917;SDS011;4004;42.624;23.386;2023-07-13T03:01:35;6.13;;;4.70;;
7917;SDS011;4004;42.624;23.386;2023-07-13T03:04:03;6.40;;;4.90;;
7917;SDS011;4004;42.624;23.386;2023-07-13T03:06:30;11.87;;;5.00;;
7917;SDS011;4004;42.624;23.386;2023-07-13T03:08:58;5.13;;;4.63;;
7917;SDS011;4004;42.624;23.386;2023-07-13T03:11:25;11.60;;;5.73;;
7917;SDS011;4004;42.624;23.386;2023-07-13T03:13:52;7.07;;;5.10;;
7917;SDS011;4004;42.624;23.386;2023-07-13T03:16:18;7.70;;;5.43;;
7917;SDS011;4004;42.624;23.386;2023-07-13T03:18:46;6.17;;;4.93;;
7917;SDS011;4004;42.624;23.386;2023-07-13T03:21:15;7.07;;;4.80;;
7917;SDS011;4004;42.624;23.386;2023-07-13T03:23:42;7.37;;;5.17;;
7917;SDS011;4004;42.624;23.386;2023-07-13T03:26:09;6.03;;;4.93;;
7917;SDS011;4004;42.624;23.386;2023-07-13T03:28:38;6.40;;;4.73;;
7917;SDS011;4004;42.624;23.386;2023-07-13T03:31:06;6.47;;;5.20;;
7917;SDS011;4004;42.624;23.386;2023-07-13T03:33:34;6.73;;;5.30;;
7917;SDS011;4004;42.624;23.386;2023-07-13T03:36:01;12.70;;;6.03;;
7917;SDS011;4004;42.624;23.386;2023-07-13T03:38:30;6.43;;;4.83;;
7917;SDS011;4004;42.624;23.386;2023-07-13T03:40:56;10.47;;;5.17;;
7917;SDS011;4004;42.624;23.386;2023-07-13T03:43:23;6.80;;;5.27;;
7917;SDS011;4004;42.624;23.386;2023-07-13T03:45:50;6.23;;;4.67;;
7917;SDS011;4004;42.624;23.386;2023-07-13T03:48:17;8.93;;;5.63;;
7917;SDS011;4004;42.624;23.386;2023-07-13T03:50:43;8.93;;;5.63;;
7917;SDS011;4004;42.624;23.386;2023-07-13T03:53:10;7.50;;;5.97;;
7917;SDS011;4004;42.624;23.386;2023-07-13T03:55:38;7.63;;;5.63;;
7917;SDS011;4004;42.624;23.386;2023-07-13T03:58:24;7.90;;;5.53;;
7917;SDS011;4004;42.624;23.386;2023-07-13T04:00:54;8.07;;;5.00;;
7917;SDS011;4004;42.624;23.386;2023-07-13T04:03:21;9.83;;;4.97;;
7917;SDS011;4004;42.624;23.386;2023-07-13T04:05:48;6.37;;;4.77;;
7917;SDS011;4004;42.624;23.386;2023-07-13T04:08:15;13.03;;;5.13;;
7917;SDS011;4004;42.624;23.386;2023-07-13T04:10:44;16.10;;;6.07;;
7917;SDS011;4004;42.624;23.386;2023-07-13T04:13:11;16.30;;;5.30;;
7917;SDS011;4004;42.624;23.386;2023-07-13T04:15:38;10.90;;;4.83;;
7917;SDS011;4004;42.624;23.386;2023-07-13T04:18:05;7.70;;;5.23;;
7917;SDS011;4004;42.624;23.386;2023-07-13T04:20:31;5.40;;;4.30;;
7917;SDS011;4004;42.624;23.386;2023-07-13T04:22:58;7.60;;;4.87;;
7917;SDS011;4004;42.624;23.386;2023-07-13T04:25:25;6.73;;;4.33;;
7917;SDS011;4004;42.624;23.386;2023-07-13T04:27:53;8.90;;;4.90;;
7917;SDS011;4004;42.624;23.386;2023-07-13T04:30:21;7.17;;;4.67;;
7917;SDS011;4004;42.624;23.386;2023-07-13T04:32:48;10.50;;;5.30;;
7917;SDS011;4004;42.624;23.386;2023-07-13T04:35:17;6.57;;;4.60;;
7917;SDS011;4004;42.624;23.386;2023-07-13T04:37:45;8.67;;;4.97;;
7917;SDS011;4004;42.624;23.386;2023-07-13T04:40:12;5.47;;;4.53;;
7917;SDS011;4004;42.624;23.386;2023-07-13T04:42:39;7.53;;;5.20;;
7917;SDS011;4004;42.624;23.386;2023-07-13T04:45:07;5.63;;;4.80;;
7917;SDS011;4004;42.624;23.386;2023-07-13T04:47:34;7.83;;;4.87;;
7917;SDS011;4004;42.624;23.386;2023-07-13T04:50:01;7.47;;;5.43;;
7917;SDS011;4004;42.624;23.386;2023-07-13T04:52:28;5.30;;;4.73;;
7917;SDS011;4004;42.624;23.386;2023-07-13T04:54:55;8.33;;;5.50;;
7917;SDS011;4004;42.624;23.386;2023-07-13T04:57:21;7.37;;;5.27;;
7917;SDS011;4004;42.624;23.386;2023-07-13T04:59:48;7.10;;;4.80;;
7917;SDS011;4004;42.624;23.386;2023-07-13T05:02:16;6.53;;;5.20;;
7917;SDS011;4004;42.624;23.386;2023-07-13T05:04:45;9.13;;;5.37;;
7917;SDS011;4004;42.624;23.386;2023-07-13T05:07:12;11.47;;;5.37;;
7917;SDS011;4004;42.624;23.386;2023-07-13T05:09:39;10.63;;;5.33;;
7917;SDS011;4004;42.624;23.386;2023-07-13T05:12:06;10.07;;;5.27;;
7917;SDS011;4004;42.624;23.386;2023-07-13T05:14:34;7.80;;;5.87;;
7917;SDS011;4004;42.624;23.386;2023-07-13T05:17:01;7.53;;;5.70;;
7917;SDS011;4004;42.624;23.386;2023-07-13T05:19:29;6.23;;;4.80;;
7917;SDS011;4004;42.624;23.386;2023-07-13T05:21:56;5.83;;;4.90;;
7917;SDS011;4004;42.624;23.386;2023-07-13T05:24:23;9.17;;;5.33;;
7917;SDS011;4004;42.624;23.386;2023-07-13T05:26:50;6.90;;;4.90;;
7917;SDS011;4004;42.624;23.386;2023-07-13T05:29:18;7.07;;;5.03;;
7917;SDS011;4004;42.624;23.386;2023-07-13T05:31:45;8.23;;;5.00;;
7917;SDS011;4004;42.624;23.386;2023-07-13T05:34:11;7.93;;;5.27;;
7917;SDS011;4004;42.624;23.386;2023-07-13T05:36:40;8.40;;;5.73;;
7917;SDS011;4004;42.624;23.386;2023-07-13T05:39:06;8.87;;;5.60;;
7917;SDS011;4004;42.624;23.386;2023-07-13T05:41:33;11.43;;;5.40;;
7917;SDS011;4004;42.624;23.386;2023-07-13T05:44:00;13.50;;;6.77;;
7917;SDS011;4004;42.624;23.386;2023-07-13T05:46:27;13.70;;;6.13;;
7917;SDS011;4004;42.624;23.386;2023-07-13T05:48:53;8.97;;;5.90;;
7917;SDS011;4004;42.624;23.386;2023-07-13T05:51:20;9.97;;;5.63;;
7917;SDS011;4004;42.624;23.386;2023-07-13T05:53:48;12.33;;;5.73;;
7917;SDS011;4004;42.624;23.386;2023-07-13T05:56:15;6.07;;;5.17;;
7917;SDS011;4004;42.624;23.386;2023-07-13T05:58:41;11.47;;;5.63;;
7917;SDS011;4004;42.624;23.386;2023-07-13T06:01:09;10.10;;;5.40;;
7917;SDS011;4004;42.624;23.386;2023-07-13T06:03:37;16.55;;;5.70;;
7917;SDS011;4004;42.624;23.386;2023-07-13T06:06:04;11.55;;;5.72;;
7917;SDS011;4004;42.624;23.386;2023-07-13T06:08:31;10.02;;;5.03;;
7917;SDS011;4004;42.624;23.386;2023-07-13T06:11:03;8.50;;;5.00;;
7917;SDS011;4004;42.624;23.386;2023-07-13T06:13:31;11.18;;;5.80;;
7917;SDS011;4004;42.624;23.386;2023-07-13T06:15:58;14.23;;;5.82;;
7917;SDS011;4004;42.624;23.386;2023-07-13T06:18:25;11.32;;;5.60;;
7917;SDS011;4004;42.624;23.386;2023-07-13T06:20:52;7.90;;;5.70;;
7917;SDS011;4004;42.624;23.386;2023-07-13T06:23:18;9.93;;;5.25;;
7917;SDS011;4004;42.624;23.386;2023-07-13T06:25:45;7.45;;;4.70;;
7917;SDS011;4004;42.624;23.386;2023-07-13T06:28:13;5.60;;;4.38;;
7917;SDS011;4004;42.624;23.386;2023-07-13T06:30:40;6.97;;;4.70;;
7917;SDS011;4004;42.624;23.386;2023-07-13T06:33:06;7.93;;;4.78;;
7917;SDS011;4004;42.624;23.386;2023-07-13T06:35:33;6.32;;;4.90;;
7917;SDS011;4004;42.624;23.386;2023-07-13T06:38:00;7.72;;;4.70;;
7917;SDS011;4004;42.624;23.386;2023-07-13T06:40:27;6.72;;;4.88;;
7917;SDS011;4004;42.624;23.386;2023-07-13T06:42:55;10.25;;;5.45;;
7917;SDS011;4004;42.624;23.386;2023-07-13T06:45:23;5.72;;;4.68;;
7917;SDS011;4004;42.624;23.386;2023-07-13T06:47:50;6.57;;;4.40;;
7917;SDS011;4004;42.624;23.386;2023-07-13T06:50:17;5.78;;;4.93;;
7917;SDS011;4004;42.624;23.386;2023-07-13T06:52:45;6.20;;;4.78;;
7917;SDS011;4004;42.624;23.386;2023-07-13T06:55:11;8.25;;;5.18;;
7917;SDS011;4004;42.624;23.386;2023-07-13T06:57:38;8.80;;;5.67;;
7917;SDS011;4004;42.624;23.386;2023-07-13T07:00:05;8.05;;;5.68;;
7917;SDS011;4004;42.624;23.386;2023-07-13T07:02:36;9.23;;;5.87;;
7917;SDS011;4004;42.624;23.386;2023-07-13T07:05:03;11.07;;;5.80;;
7917;SDS011;4004;42.624;23.386;2023-07-13T07:07:30;7.73;;;5.80;;
7917;SDS011;4004;42.624;23.386;2023-07-13T07:09:57;8.10;;;5.50;;
7917;SDS011;4004;42.624;23.386;2023-07-13T07:12:23;11.40;;;5.73;;
7917;SDS011;4004;42.624;23.386;2023-07-13T07:14:50;11.43;;;5.73;;
7917;SDS011;4004;42.624;23.386;2023-07-13T07:17:17;8.97;;;6.37;;
7917;SDS011;4004;42.624;23.386;2023-07-13T07:19:45;8.87;;;5.50;;
7917;SDS011;4004;42.624;23.386;2023-07-13T07:22:11;13.83;;;5.83;;
7917;SDS011;4004;42.624;23.386;2023-07-13T07:24:38;17.97;;;6.37;;
7917;SDS011;4004;42.624;23.386;2023-07-13T07:27:05;13.20;;;5.80;;
7917;SDS011;4004;42.624;23.386;2023-07-13T07:29:32;9.77;;;5.73;;
7917;SDS011;4004;42.624;23.386;2023-07-13T07:31:59;8.80;;;5.40;;
7917;SDS011;4004;42.624;23.386;2023-07-13T07:34:26;11.03;;;5.53;;
7917;SDS011;4004;42.624;23.386;2023-07-13T07:36:54;11.93;;;6.03;;
7917;SDS011;4004;42.624;23.386;2023-07-13T07:39:21;11.53;;;6.33;;
7917;SDS011;4004;42.624;23.386;2023-07-13T07:41:47;12.50;;;6.77;;
7917;SDS011;4004;42.624;23.386;2023-07-13T07:44:14;8.07;;;6.20;;
7917;SDS011;4004;42.624;23.386;2023-07-13T07:46:41;10.37;;;6.60;;
7917;SDS011;4004;42.624;23.386;2023-07-13T07:49:07;11.27;;;6.73;;
7917;SDS011;4004;42.624;23.386;2023-07-13T07:51:34;16.33;;;6.97;;
7917;SDS011;4004;42.624;23.386;2023-07-13T07:54:03;12.43;;;6.50;;
7917;SDS011;4004;42.624;23.386;2023-07-13T07:56:29;11.90;;;6.97;;
7917;SDS011;4004;42.624;23.386;2023-07-13T07:58:56;14.13;;;8.10;;
7917;SDS011;4004;42.624;23.386;2023-07-13T08:01:23;9.57;;;6.43;;
7917;SDS011;4004;42.624;23.386;2023-07-13T08:03:50;8.67;;;6.13;;
7917;SDS011;4004;42.624;23.386;2023-07-13T08:06:17;9.00;;;6.43;;
7917;SDS011;4004;42.624;23.386;2023-07-13T08:08:44;8.50;;;6.80;;
7917;SDS011;4004;42.624;23.386;2023-07-13T08:11:13;11.27;;;6.37;;
7917;SDS011;4004;42.624;23.386;2023-07-13T08:13:39;10.20;;;6.53;;
7917;SDS011;4004;42.624;23.386;2023-07-13T08:16:06;9.20;;;7.33;;
7917;SDS011;4004;42.624;23.386;2023-07-13T08:18:33;9.23;;;7.43;;
7917;SDS011;4004;42.624;23.386;2023-07-13T08:21:02;10.87;;;6.03;;
7917;SDS011;4004;42.624;23.386;2023-07-13T08:23:30;8.17;;;6.73;;
7917;SDS011;4004;42.624;23.386;2023-07-13T08:25:57;10.97;;;6.60;;
7917;SDS011;4004;42.624;23.386;2023-07-13T08:28:27;11.93;;;6.27;;
7917;SDS011;4004;42.624;23.386;2023-07-13T08:30:54;15.67;;;6.53;;
7917;SDS011;4004;42.624;23.386;2023-07-13T08:33:21;9.93;;;5.90;;
7917;SDS011;4004;42.624;23.386;2023-07-13T08:35:49;7.07;;;6.40;;
7917;SDS011;4004;42.624;23.386;2023-07-13T08:38:16;12.97;;;6.30;;
7917;SDS011;4004;42.624;23.386;2023-07-13T08:40:43;8.03;;;6.27;;
7917;SDS011;4004;42.624;23.386;2023-07-13T08:43:16;8.13;;;6.10;;
7917;SDS011;4004;42.624;23.386;2023-07-13T08:45:47;12.43;;;6.57;;
7917;SDS011;4004;42.624;23.386;2023-07-13T08:48:18;8.70;;;6.40;;
7917;SDS011;4004;42.624;23.386;2023-07-13T08:50:51;8.23;;;6.33;;
7917;SDS011;4004;42.624;23.386;2023-07-13T08:53:23;10.47;;;6.67;;
7917;SDS011;4004;42.624;23.386;2023-07-13T08:55:57;15.77;;;6.40;;
7917;SDS011;4004;42.624;23.386;2023-07-13T08:58:25;8.10;;;6.80;;
7917;SDS011;4004;42.624;23.386;2023-07-13T09:00:56;7.77;;;6.27;;
7917;SDS011;4004;42.624;23.386;2023-07-13T09:03:35;8.27;;;5.80;;
7917;SDS011;4004;42.624;23.386;2023-07-13T09:06:06;7.07;;;5.90;;
7917;SDS011;4004;42.624;23.386;2023-07-13T09:08:45;10.00;;;6.33;;
7917;SDS011;4004;42.624;23.386;2023-07-13T09:11:21;7.63;;;5.80;;
7917;SDS011;4004;42.624;23.386;2023-07-13T09:13:57;10.40;;;6.70;;
7917;SDS011;4004;42.624;23.386;2023-07-13T09:16:32;6.80;;;6.10;;
7917;SDS011;4004;42.624;23.386;2023-07-13T09:19:01;12.17;;;6.93;;
7917;SDS011;4004;42.624;23.386;2023-07-13T09:21:31;16.10;;;6.70;;
7917;SDS011;4004;42.624;23.386;2023-07-13T09:24:12;10.73;;;6.13;;
7917;SDS011;4004;42.624;23.386;2023-07-13T09:26:54;11.53;;;6.70;;
7917;SDS011;4004;42.624;23.386;2023-07-13T09:29:23;11.40;;;6.70;;
7917;SDS011;4004;42.624;23.386;2023-07-13T09:31:57;11.77;;;7.37;;
7917;SDS011;4004;42.624;23.386;2023-07-13T09:34:27;14.03;;;6.57;;
7917;SDS011;4004;42.624;23.386;2023-07-13T09:36:55;13.67;;;6.90;;
7917;SDS011;4004;42.624;23.386;2023-07-13T09:39:23;13.73;;;6.87;;
7917;SDS011;4004;42.624;23.386;2023-07-13T09:41:54;13.27;;;6.57;;
7917;SDS011;4004;42.624;23.386;2023-07-13T09:44:28;9.73;;;6.43;;
7917;SDS011;4004;42.624;23.386;2023-07-13T09:46:57;14.87;;;7.20;;
7917;SDS011;4004;42.624;23.386;2023-07-13T09:49:25;12.90;;;7.10;;
7917;SDS011;4004;42.624;23.386;2023-07-13T09:51:57;13.77;;;6.87;;
7917;SDS011;4004;42.624;23.386;2023-07-13T09:54:25;7.93;;;6.67;;
7917;SDS011;4004;42.624;23.386;2023-07-13T09:56:55;14.43;;;6.93;;
7917;SDS011;4004;42.624;23.386;2023-07-13T09:59:23;12.23;;;7.03;;
7917;SDS011;4004;42.624;23.386;2023-07-13T10:01:59;10.70;;;6.60;;
7917;SDS011;4004;42.624;23.386;2023-07-13T10:04:30;15.47;;;7.10;;
7917;SDS011;4004;42.624;23.386;2023-07-13T10:07:04;12.80;;;7.20;;
7917;SDS011;4004;42.624;23.386;2023-07-13T10:09:32;16.33;;;7.07;;
7917;SDS011;4004;42.624;23.386;2023-07-13T10:11:59;12.60;;;7.40;;
7917;SDS011;4004;42.624;23.386;2023-07-13T10:14:26;11.50;;;6.87;;
7917;SDS011;4004;42.624;23.386;2023-07-13T10:16:57;14.07;;;6.80;;
7917;SDS011;4004;42.624;23.386;2023-07-13T10:19:29;13.73;;;6.40;;
7917;SDS011;4004;42.624;23.386;2023-07-13T10:21:59;10.17;;;6.73;;
7917;SDS011;4004;42.624;23.386;2023-07-13T10:24:29;12.40;;;5.93;;
7917;SDS011;4004;42.624;23.386;2023-07-13T10:27:00;10.03;;;6.37;;
7917;SDS011;4004;42.624;23.386;2023-07-13T10:29:32;8.47;;;6.20;;
7917;SDS011;4004;42.624;23.386;2023-07-13T10:32:07;10.23;;;7.13;;
7917;SDS011;4004;42.624;23.386;2023-07-13T10:34:35;14.50;;;6.93;;
7917;SDS011;4004;42.624;23.386;2023-07-13T10:37:03;11.93;;;6.57;;
7917;SDS011;4004;42.624;23.386;2023-07-13T10:39:33;10.17;;;6.77;;
7917;SDS011;4004;42.624;23.386;2023-07-13T10:42:03;13.30;;;6.97;;
7917;SDS011;4004;42.624;23.386;2023-07-13T10:44:33;12.83;;;6.93;;
7917;SDS011;4004;42.624;23.386;2023-07-13T10:47:05;13.17;;;6.33;;
7917;SDS011;4004;42.624;23.386;2023-07-13T10:49:39;7.57;;;6.33;;
7917;SDS011;4004;42.624;23.386;2023-07-13T10:52:28;10.53;;;6.87;;
7917;SDS011;4004;42.624;23.386;2023-07-13T10:57:59;12.90;;;6.70;;
7917;SDS011;4004;42.624;23.386;2023-07-13T11:00:30;11.73;;;6.33;;
7917;SDS011;4004;42.624;23.386;2023-07-13T11:03:00;15.47;;;6.60;;
7917;SDS011;4004;42.624;23.386;2023-07-13T11:05:29;12.80;;;6.13;;
7917;SDS011;4004;42.624;23.386;2023-07-13T11:08:03;11.13;;;6.77;;
7917;SDS011;4004;42.624;23.386;2023-07-13T11:10:47;11.87;;;6.67;;
7917;SDS011;4004;42.624;23.386;2023-07-13T11:16:11;10.83;;;6.60;;
7917;SDS011;4004;42.624;23.386;2023-07-13T11:18:40;11.37;;;7.20;;
7917;SDS011;4004;42.624;23.386;2023-07-13T11:21:15;9.73;;;6.77;;
7917;SDS011;4004;42.624;23.386;2023-07-13T11:23:43;15.37;;;7.03;;
7917;SDS011;4004;42.624;23.386;2023-07-13T11:29:08;13.13;;;6.23;;
7917;SDS011;4004;42.624;23.386;2023-07-13T11:31:51;12.20;;;6.27;;
7917;SDS011;4004;42.624;23.386;2023-07-13T11:34:21;11.33;;;6.30;;
7917;SDS011;4004;42.624;23.386;2023-07-13T11:36:53;12.23;;;6.70;;
7917;SDS011;4004;42.624;23.386;2023-07-13T11:39:24;13.37;;;6.50;;
7917;SDS011;4004;42.624;23.386;2023-07-13T11:41:57;14.40;;;6.50;;
7917;SDS011;4004;42.624;23.386;2023-07-13T11:44:27;13.77;;;7.10;;
7917;SDS011;4004;42.624;23.386;2023-07-13T11:46:56;10.30;;;6.13;;
7917;SDS011;4004;42.624;23.386;2023-07-13T11:49:28;12.97;;;5.97;;
7917;SDS011;4004;42.624;23.386;2023-07-13T11:51:57;10.67;;;6.00;;
7917;SDS011;4004;42.624;23.386;2023-07-13T11:54:25;11.30;;;5.63;;
7917;SDS011;4004;42.624;23.386;2023-07-13T11:56:55;11.47;;;6.37;;
7917;SDS011;4004;42.624;23.386;2023-07-13T11:59:25;8.97;;;6.03;;
7917;SDS011;4004;42.624;23.386;2023-07-13T12:01:53;7.47;;;5.23;;
7917;SDS011;4004;42.624;23.386;2023-07-13T12:04:22;13.03;;;5.70;;
7917;SDS011;4004;42.624;23.386;2023-07-13T12:07:03;9.30;;;5.40;;
7917;SDS011;4004;42.624;23.386;2023-07-13T12:09:34;12.80;;;5.97;;
7917;SDS011;4004;42.624;23.386;2023-07-13T12:12:02;11.00;;;5.83;;
7917;SDS011;4004;42.624;23.386;2023-07-13T12:14:29;10.03;;;5.87;;
7917;SDS011;4004;42.624;23.386;2023-07-13T12:17:00;11.17;;;5.93;;
7917;SDS011;4004;42.624;23.386;2023-07-13T12:19:27;9.90;;;6.23;;
7917;SDS011;4004;42.624;23.386;2023-07-13T12:21:55;9.30;;;6.00;;
7917;SDS011;4004;42.624;23.386;2023-07-13T12:24:25;12.67;;;5.90;;
7917;SDS011;4004;42.624;23.386;2023-07-13T12:26:53;14.40;;;5.83;;
7917;SDS011;4004;42.624;23.386;2023-07-13T12:29:21;17.27;;;5.73;;
7917;SDS011;4004;42.624;23.386;2023-07-13T12:31:48;14.10;;;6.67;;
7917;SDS011;4004;42.624;23.386;2023-07-13T12:34:18;10.73;;;5.93;;
7917;SDS011;4004;42.624;23.386;2023-07-13T12:36:46;14.07;;;6.47;;
7917;SDS011;4004;42.624;23.386;2023-07-13T12:39:16;11.60;;;6.13;;
7917;SDS011;4004;42.624;23.386;2023-07-13T12:41:46;13.63;;;6.30;;
7917;SDS011;4004;42.624;23.386;2023-07-13T12:44:14;9.40;;;5.53;;
7917;SDS011;4004;42.624;23.386;2023-07-13T12:46:53;10.60;;;6.50;;
7917;SDS011;4004;42.624;23.386;2023-07-13T12:49:23;11.27;;;5.37;;
7917;SDS011;4004;42.624;23.386;2023-07-13T12:51:55;17.50;;;6.60;;
7917;SDS011;4004;42.624;23.386;2023-07-13T12:54:24;13.77;;;6.00;;
7917;SDS011;4004;42.624;23.386;2023-07-13T12:56:52;11.47;;;5.47;;
7917;SDS011;4004;42.624;23.386;2023-07-13T12:59:22;11.57;;;6.13;;
7917;SDS011;4004;42.624;23.386;2023-07-13T13:01:51;12.20;;;5.83;;
7917;SDS011;4004;42.624;23.386;2023-07-13T13:04:19;10.43;;;6.03;;
7917;SDS011;4004;42.624;23.386;2023-07-13T13:06:47;10.17;;;5.70;;
7917;SDS011;4004;42.624;23.386;2023-07-13T13:09:15;9.80;;;5.77;;
7917;SDS011;4004;42.624;23.386;2023-07-13T13:11:43;10.60;;;5.70;;
7917;SDS011;4004;42.624;23.386;2023-07-13T13:14:11;13.03;;;6.00;;
7917;SDS011;4004;42.624;23.386;2023-07-13T13:16:43;11.23;;;6.00;;
7917;SDS011;4004;42.624;23.386;2023-07-13T13:19:15;13.67;;;5.87;;
7917;SDS011;4004;42.624;23.386;2023-07-13T13:21:43;12.17;;;5.53;;
7917;SDS011;4004;42.624;23.386;2023-07-13T13:24:12;10.47;;;5.70;;
7917;SDS011;4004;42.624;23.386;2023-07-13T13:26:39;12.53;;;5.97;;
7917;SDS011;4004;42.624;23.386;2023-07-13T13:29:12;20.27;;;6.97;;
7917;SDS011;4004;42.624;23.386;2023-07-13T13:31:41;15.10;;;6.00;;
7917;SDS011;4004;42.624;23.386;2023-07-13T13:34:08;13.43;;;5.20;;
7917;SDS011;4004;42.624;23.386;2023-07-13T13:36:36;17.10;;;5.70;;
7917;SDS011;4004;42.624;23.386;2023-07-13T13:39:05;11.40;;;5.50;;
7917;SDS011;4004;42.624;23.386;2023-07-13T13:41:42;13.87;;;5.40;;
7917;SDS011;4004;42.624;23.386;2023-07-13T13:44:08;11.23;;;5.30;;
7917;SDS011;4004;42.624;23.386;2023-07-13T13:46:37;10.13;;;5.20;;
7917;SDS011;4004;42.624;23.386;2023-07-13T13:49:04;12.33;;;5.87;;
7917;SDS011;4004;42.624;23.386;2023-07-13T13:51:31;15.07;;;6.10;;
7917;SDS011;4004;42.624;23.386;2023-07-13T13:53:58;10.27;;;5.67;;
7917;SDS011;4004;42.624;23.386;2023-07-13T13:56:26;13.80;;;5.50;;
7917;SDS011;4004;42.624;23.386;2023-07-13T13:58:53;11.47;;;5.63;;
7917;SDS011;4004;42.624;23.386;2023-07-13T14:01:20;10.93;;;5.77;;
7917;SDS011;4004;42.624;23.386;2023-07-13T14:03:50;9.97;;;5.20;;
7917;SDS011;4004;42.624;23.386;2023-07-13T14:06:17;15.03;;;5.83;;
7917;SDS011;4004;42.624;23.386;2023-07-13T14:08:44;9.10;;;5.00;;
7917;SDS011;4004;42.624;23.386;2023-07-13T14:11:12;11.67;;;5.57;;
7917;SDS011;4004;42.624;23.386;2023-07-13T14:13:42;15.70;;;5.40;;
7917;SDS011;4004;42.624;23.386;2023-07-13T14:16:12;13.10;;;5.70;;
7917;SDS011;4004;42.624;23.386;2023-07-13T14:18:42;16.87;;;5.67;;
7917;SDS011;4004;42.624;23.386;2023-07-13T14:21:15;12.87;;;5.83;;
7917;SDS011;4004;42.624;23.386;2023-07-13T14:23:43;13.80;;;6.37;;
7917;SDS011;4004;42.624;23.386;2023-07-13T14:26:11;16.27;;;5.77;;
7917;SDS011;4004;42.624;23.386;2023-07-13T14:28:41;11.93;;;5.63;;
7917;SDS011;4004;42.624;23.386;2023-07-13T14:31:09;16.93;;;6.20;;
7917;SDS011;4004;42.624;23.386;2023-07-13T14:33:36;12.47;;;5.53;;
7917;SDS011;4004;42.624;23.386;2023-07-13T14:36:03;16.67;;;5.43;;
7917;SDS011;4004;42.624;23.386;2023-07-13T14:38:44;8.07;;;5.37;;
7917;SDS011;4004;42.624;23.386;2023-07-13T14:41:11;15.17;;;5.67;;
7917;SDS011;4004;42.624;23.386;2023-07-13T14:43:37;13.07;;;5.33;;
7917;SDS011;4004;42.624;23.386;2023-07-13T14:46:04;9.90;;;6.33;;
7917;SDS011;4004;42.624;23.386;2023-07-13T14:48:31;10.03;;;5.57;;
7917;SDS011;4004;42.624;23.386;2023-07-13T14:50:58;12.37;;;5.87;;
7917;SDS011;4004;42.624;23.386;2023-07-13T14:53:26;14.07;;;5.87;;
7917;SDS011;4004;42.624;23.386;2023-07-13T14:55:55;14.63;;;5.77;;
7917;SDS011;4004;42.624;23.386;2023-07-13T14:58:22;12.23;;;5.43;;
7917;SDS011;4004;42.624;23.386;2023-07-13T15:00:49;15.90;;;5.90;;
7917;SDS011;4004;42.624;23.386;2023-07-13T15:03:19;15.43;;;5.90;;
7917;SDS011;4004;42.624;23.386;2023-07-13T15:05:49;12.17;;;6.57;;
7917;SDS011;4004;42.624;23.386;2023-07-13T15:08:16;16.03;;;5.43;;
7917;SDS011;4004;42.624;23.386;2023-07-13T15:10:42;16.40;;;5.87;;
7917;SDS011;4004;42.624;23.386;2023-07-13T15:13:15;8.80;;;5.17;;